createdAt,value
2019-06-26T00:00:29.687Z,0.00
2019-06-26T00:01:29.671Z,0.00
2019-06-26T00:02:29.658Z,0.00
2019-06-26T00:03:29.645Z,0.00
2019-06-26T00:04:29.644Z,0.00
2019-06-26T00:05:29.618Z,0.00
2019-06-26T00:06:29.609Z,0.00
2019-06-26T00:07:29.603Z,0.00
2019-06-26T00:08:29.586Z,0.00
2019-06-26T00:09:29.582Z,0.00
2019-06-26T00:10:29.555Z,0.00
2019-06-26T00:11:29.542Z,0.00
2019-06-26T00:12:29.527Z,0.00
2019-06-26T00:13:29.517Z,0.00
2019-06-26T00:14:29.537Z,0.00
2019-06-26T00:15:29.494Z,0.00
2019-06-26T00:16:29.477Z,0.00
2019-06-26T00:17:29.478Z,0.00
2019-06-26T00:18:29.451Z,0.00
2019-06-26T00:19:29.439Z,0.00
2019-06-26T00:20:29.440Z,0.00
2019-06-26T00:21:29.413Z,0.00
2019-06-26T00:22:29.400Z,0.00
2019-06-26T00:23:29.388Z,0.00
2019-06-26T00:24:29.377Z,0.00
2019-06-26T00:25:29.373Z,0.00
2019-06-26T00:26:29.348Z,0.00
2019-06-26T00:27:29.335Z,0.00
2019-06-26T00:28:29.322Z,0.00
2019-06-26T00:29:29.308Z,0.00
2019-06-26T00:30:29.310Z,0.00
2019-06-26T00:31:29.284Z,0.00
2019-06-26T00:32:29.271Z,0.00
2019-06-26T00:33:29.270Z,0.00
2019-06-26T00:34:29.243Z,0.00
2019-06-26T00:35:29.244Z,0.00
2019-06-26T00:36:29.217Z,0.00
2019-06-26T00:37:29.206Z,0.00
2019-06-26T00:38:29.193Z,0.00
2019-06-26T00:39:29.429Z,0.00
2019-06-26T00:40:29.202Z,0.00
2019-06-26T00:41:29.161Z,0.00
2019-06-26T00:42:29.140Z,0.00
2019-06-26T00:43:41.879Z,0.00
2019-06-26T00:44:29.116Z,0.00
2019-06-26T00:45:29.103Z,0.00
2019-06-26T00:46:29.100Z,0.00
2019-06-26T00:47:29.096Z,0.00
2019-06-26T00:48:29.076Z,0.00
2019-06-26T00:49:29.051Z,0.00
2019-06-26T00:50:29.036Z,0.00
2019-06-26T00:51:29.038Z,0.00
2019-06-26T00:52:29.009Z,0.00
2019-06-26T00:53:28.993Z,0.00
2019-06-26T00:54:28.984Z,0.00
2019-06-26T00:55:28.971Z,0.00
2019-06-26T00:56:28.974Z,0.00
2019-06-26T00:57:28.940Z,0.00
2019-06-26T00:58:28.926Z,0.00
2019-06-26T00:59:28.916Z,0.00
2019-06-26T01:00:29.067Z,0.00
2019-06-26T01:01:29.347Z,0.00
2019-06-26T01:02:28.877Z,0.00
2019-06-26T01:03:28.864Z,0.00
2019-06-26T01:04:28.849Z,0.00
2019-06-26T01:05:28.833Z,0.00
2019-06-26T01:06:28.822Z,0.00
2019-06-26T01:07:28.840Z,0.00
2019-06-26T01:08:28.796Z,0.00
2019-06-26T01:09:28.784Z,0.00
2019-06-26T01:10:28.801Z,0.00
2019-06-26T01:11:28.772Z,0.00
2019-06-26T01:12:28.756Z,0.00
2019-06-26T01:13:28.727Z,0.00
2019-06-26T01:14:28.717Z,0.00
2019-06-26T01:15:28.706Z,0.00
2019-06-26T01:16:28.687Z,0.00
2019-06-26T01:17:28.689Z,0.00
2019-06-26T01:18:28.660Z,0.00
2019-06-26T01:19:28.649Z,0.00
2019-06-26T01:20:28.637Z,0.00
2019-06-26T01:21:28.622Z,0.00
2019-06-26T01:22:28.628Z,0.00
2019-06-26T01:23:28.593Z,0.00
2019-06-26T01:24:28.579Z,0.00
2019-06-26T01:25:28.568Z,0.00
2019-06-26T01:26:28.553Z,0.00
2019-06-26T01:27:28.540Z,0.00
2019-06-26T01:28:28.539Z,0.00
2019-06-26T01:29:28.516Z,0.00
2019-06-26T01:30:28.499Z,0.00
2019-06-26T01:31:28.485Z,0.00
2019-06-26T01:32:28.473Z,0.00
2019-06-26T01:33:28.472Z,0.00
2019-06-26T01:34:28.446Z,0.00
2019-06-26T01:35:28.433Z,0.00
2019-06-26T01:36:28.418Z,0.00
2019-06-26T01:37:28.406Z,0.00
2019-06-26T01:38:28.428Z,0.00
2019-06-26T01:39:28.379Z,0.00
2019-06-26T01:40:28.363Z,0.00
2019-06-26T01:41:28.351Z,0.00
2019-06-26T01:42:28.340Z,0.00
2019-06-26T01:43:28.325Z,0.00
2019-06-26T01:44:28.322Z,0.00
2019-06-26T01:45:28.296Z,0.00
2019-06-26T01:46:28.302Z,0.00
2019-06-26T01:47:28.268Z,0.00
2019-06-26T01:48:28.256Z,0.00
2019-06-26T01:49:28.261Z,0.00
2019-06-26T01:50:28.228Z,0.00
2019-06-26T01:51:28.219Z,0.00
2019-06-26T01:52:28.202Z,0.00
2019-06-26T01:53:28.190Z,0.00
2019-06-26T01:54:28.197Z,0.00
2019-06-26T01:55:28.160Z,0.00
2019-06-26T01:56:28.146Z,0.00
2019-06-26T01:57:28.133Z,0.00
2019-06-26T01:58:28.124Z,0.00
2019-06-26T01:59:28.107Z,0.00
2019-06-26T02:00:28.107Z,0.00
2019-06-26T02:01:28.092Z,0.00
2019-06-26T02:02:28.067Z,0.00
2019-06-26T02:03:28.053Z,0.00
2019-06-26T02:04:28.038Z,0.00
2019-06-26T02:05:28.050Z,0.00
2019-06-26T02:06:28.013Z,0.00
2019-06-26T02:07:27.999Z,0.00
2019-06-26T02:08:27.984Z,0.00
2019-06-26T02:09:27.969Z,0.00
2019-06-26T02:10:27.978Z,0.00
2019-06-26T02:11:27.942Z,0.00
2019-06-26T02:12:27.928Z,0.00
2019-06-26T02:13:27.916Z,0.00
2019-06-26T02:14:31.541Z,0.00
2019-06-26T02:15:27.885Z,0.00
2019-06-26T02:16:27.873Z,0.00
2019-06-26T02:17:27.859Z,0.00
2019-06-26T02:18:27.844Z,0.00
2019-06-26T02:19:27.850Z,0.00
2019-06-26T02:20:27.817Z,0.00
2019-06-26T02:21:27.804Z,0.00
2019-06-26T02:22:27.793Z,0.00
2019-06-26T02:23:27.776Z,0.00
2019-06-26T02:24:27.763Z,0.00
2019-06-26T02:25:27.764Z,0.00
2019-06-26T02:26:27.741Z,0.00
2019-06-26T02:27:27.738Z,0.00
2019-06-26T02:28:27.705Z,0.00
2019-06-26T02:29:27.715Z,0.00
2019-06-26T02:30:27.711Z,0.00
2019-06-26T02:31:27.698Z,0.00
2019-06-26T02:32:27.653Z,0.00
2019-06-26T02:33:27.636Z,0.00
2019-06-26T02:34:27.625Z,0.00
2019-06-26T02:35:27.613Z,0.00
2019-06-26T02:36:27.620Z,0.00
2019-06-26T02:37:27.585Z,4.00
2019-06-26T02:38:27.576Z,4.00
2019-06-26T02:39:27.563Z,4.00
2019-06-26T02:40:27.547Z,0.00
2019-06-26T02:41:27.536Z,4.00
2019-06-26T02:42:27.535Z,4.00
2019-06-26T02:43:27.507Z,4.00
2019-06-26T02:44:27.487Z,4.00
2019-06-26T02:45:27.474Z,4.00
2019-06-26T02:46:27.462Z,4.00
2019-06-26T02:47:27.472Z,8.00
2019-06-26T02:48:27.439Z,8.00
2019-06-26T02:49:27.920Z,8.00
2019-06-26T02:50:27.404Z,12.00
2019-06-26T02:51:27.390Z,12.00
2019-06-26T02:52:27.384Z,16.00
2019-06-26T02:53:27.384Z,16.00
2019-06-26T02:54:27.354Z,20.00
2019-06-26T02:55:27.339Z,20.00
2019-06-26T02:56:27.319Z,24.00
2019-06-26T02:57:27.321Z,28.00
2019-06-26T02:58:27.296Z,28.00
2019-06-26T02:59:27.298Z,32.00
2019-06-26T03:00:27.262Z,36.00
2019-06-26T03:01:27.249Z,40.00
2019-06-26T03:02:27.238Z,44.00
2019-06-26T03:03:27.223Z,52.00
2019-06-26T03:04:27.210Z,60.00
2019-06-26T03:05:27.219Z,64.00
2019-06-26T03:06:27.178Z,72.00
2019-06-26T03:07:27.168Z,76.00
2019-06-26T03:08:27.151Z,88.00
2019-06-26T03:09:27.138Z,96.00
2019-06-26T03:10:27.124Z,104.00
2019-06-26T03:11:27.133Z,116.00
2019-06-26T03:12:27.094Z,128.00
2019-06-26T03:13:27.082Z,140.00
2019-06-26T03:14:27.071Z,152.00
2019-06-26T03:15:27.052Z,168.00
2019-06-26T03:16:27.042Z,180.00
2019-06-26T03:17:27.050Z,196.00
2019-06-26T03:18:27.011Z,216.00
2019-06-26T03:19:26.998Z,232.00
2019-06-26T03:20:26.986Z,248.00
2019-06-26T03:21:26.970Z,264.00
2019-06-26T03:22:26.955Z,284.00
2019-06-26T03:23:26.960Z,300.00
2019-06-26T03:24:26.930Z,324.00
2019-06-26T03:25:26.912Z,340.00
2019-06-26T03:26:26.901Z,360.00
2019-06-26T03:27:26.886Z,380.00
2019-06-26T03:28:26.895Z,404.00
2019-06-26T03:29:26.859Z,428.00
2019-06-26T03:30:26.842Z,452.00
2019-06-26T03:31:26.838Z,472.00
2019-06-26T03:32:26.815Z,500.00
2019-06-26T03:33:26.800Z,524.00
2019-06-26T03:34:26.809Z,548.00
2019-06-26T03:35:26.774Z,576.00
2019-06-26T03:36:26.758Z,600.00
2019-06-26T03:37:26.744Z,624.00
2019-06-26T03:38:26.730Z,652.00
2019-06-26T03:39:26.718Z,680.00
2019-06-26T03:40:26.758Z,708.00
2019-06-26T03:41:26.687Z,744.00
2019-06-26T03:42:26.677Z,780.00
2019-06-26T03:43:26.660Z,816.00
2019-06-26T03:44:26.646Z,844.00
2019-06-26T03:45:26.710Z,876.00
2019-06-26T03:46:26.617Z,908.00
2019-06-26T03:47:26.605Z,944.00
2019-06-26T03:48:26.592Z,984.00
2019-06-26T03:49:26.601Z,1020.00
2019-06-26T03:50:26.561Z,1056.00
2019-06-26T03:51:26.573Z,1096.00
2019-06-26T03:52:26.540Z,1136.00
2019-06-26T03:53:26.519Z,1172.00
2019-06-26T03:54:26.505Z,1208.00
2019-06-26T03:55:26.492Z,1248.00
2019-06-26T03:56:26.481Z,1288.00
2019-06-26T03:57:26.490Z,1328.00
2019-06-26T03:58:26.450Z,1368.00
2019-06-26T03:59:26.435Z,1404.00
2019-06-26T04:00:26.419Z,1440.00
2019-06-26T04:01:26.408Z,1476.00
2019-06-26T04:02:26.393Z,1512.00
2019-06-26T04:03:26.403Z,1552.00
2019-06-26T04:04:26.371Z,1592.00
2019-06-26T04:05:26.349Z,1628.00
2019-06-26T04:06:26.337Z,1664.00
2019-06-26T04:07:26.324Z,1700.00
2019-06-26T04:08:26.307Z,1740.00
2019-06-26T04:09:26.313Z,1776.00
2019-06-26T04:10:26.304Z,1816.00
2019-06-26T04:11:26.266Z,1852.00
2019-06-26T04:12:26.254Z,1892.00
2019-06-26T04:13:26.239Z,1928.00
2019-06-26T04:14:26.223Z,1964.00
2019-06-26T04:15:40.920Z,2004.00
2019-06-26T04:16:26.198Z,2040.00
2019-06-26T04:17:26.187Z,2076.00
2019-06-26T04:18:26.171Z,2116.00
2019-06-26T04:19:26.154Z,2152.00
2019-06-26T04:20:26.144Z,2184.00
2019-06-26T04:21:26.147Z,2224.00
2019-06-26T04:22:26.110Z,2260.00
2019-06-26T04:23:26.101Z,2300.00
2019-06-26T04:24:26.084Z,2340.00
2019-06-26T04:25:26.071Z,2380.00
2019-06-26T04:26:26.057Z,2416.00
2019-06-26T04:27:26.062Z,2452.00
2019-06-26T04:28:26.051Z,2488.00
2019-06-26T04:29:26.014Z,2520.00
2019-06-26T04:30:26.001Z,2564.00
2019-06-26T04:31:25.986Z,2600.00
2019-06-26T04:32:25.970Z,2636.00
2019-06-26T04:33:26.000Z,2668.00
2019-06-26T04:34:25.943Z,2704.00
2019-06-26T04:35:25.931Z,2740.00
2019-06-26T04:36:25.916Z,2776.00
2019-06-26T04:37:25.901Z,2812.00
2019-06-26T04:38:25.887Z,2848.00
2019-06-26T04:39:25.905Z,2880.00
2019-06-26T04:40:25.862Z,2908.00
2019-06-26T04:41:25.850Z,2936.00
2019-06-26T04:42:25.837Z,2968.00
2019-06-26T04:43:25.822Z,3008.00
2019-06-26T04:44:25.805Z,3040.00
2019-06-26T04:45:25.817Z,3072.00
2019-06-26T04:46:25.786Z,3100.00
2019-06-26T04:47:25.770Z,3132.00
2019-06-26T04:48:25.749Z,3156.00
2019-06-26T04:49:25.735Z,3184.00
2019-06-26T04:50:25.728Z,3220.00
2019-06-26T04:51:25.724Z,3252.00
2019-06-26T04:52:25.694Z,3280.00
2019-06-26T04:53:25.679Z,3304.00
2019-06-26T04:54:25.666Z,3328.00
2019-06-26T04:55:25.655Z,3352.00
2019-06-26T04:56:25.659Z,3384.00
2019-06-26T04:57:25.645Z,3412.00
2019-06-26T04:58:25.683Z,3444.00
2019-06-26T04:59:25.603Z,3472.00
2019-06-26T05:00:25.583Z,3500.00
2019-06-26T05:01:25.571Z,3528.00
2019-06-26T05:02:25.577Z,3552.00
2019-06-26T05:03:25.542Z,3572.00
2019-06-26T05:04:25.534Z,3592.00
2019-06-26T05:05:38.634Z,3620.00
2019-06-26T05:06:25.502Z,3640.00
2019-06-26T05:07:25.496Z,3660.00
2019-06-26T05:08:25.500Z,3676.00
2019-06-26T05:09:25.460Z,3700.00
2019-06-26T05:10:25.464Z,3724.00
2019-06-26T05:11:25.440Z,3744.00
2019-06-26T05:12:25.547Z,3764.00
2019-06-26T05:13:25.408Z,3784.00
2019-06-26T05:14:25.426Z,3812.00
2019-06-26T05:15:25.382Z,3832.00
2019-06-26T05:16:25.368Z,3860.00
2019-06-26T05:17:25.355Z,3888.00
2019-06-26T05:18:25.507Z,3908.00
2019-06-26T05:19:25.340Z,3932.00
2019-06-26T05:20:25.337Z,3956.00
2019-06-26T05:21:25.299Z,3984.00
2019-06-26T05:22:25.331Z,4008.00
2019-06-26T05:23:25.273Z,4032.00
2019-06-26T05:24:25.275Z,4056.00
2019-06-26T05:25:25.257Z,4088.00
2019-06-26T05:26:25.258Z,4112.00
2019-06-26T05:27:25.220Z,4144.00
2019-06-26T05:28:25.205Z,4184.00
2019-06-26T05:29:25.191Z,4224.00
2019-06-26T05:30:25.206Z,4236.00
2019-06-26T05:31:25.165Z,4244.00
2019-06-26T05:32:25.177Z,4260.00
2019-06-26T05:33:25.138Z,4288.00
2019-06-26T05:34:25.124Z,4300.00
2019-06-26T05:35:25.117Z,4308.00
2019-06-26T05:36:25.100Z,4332.00
2019-06-26T05:37:25.085Z,4360.00
2019-06-26T05:38:25.095Z,4412.00
2019-06-26T05:39:25.058Z,4472.00
2019-06-26T05:40:25.047Z,4512.00
2019-06-26T05:41:25.034Z,4524.00
2019-06-26T05:42:25.023Z,4516.00
2019-06-26T05:43:25.011Z,4564.00
2019-06-26T05:44:25.077Z,4600.00
2019-06-26T05:45:24.982Z,4608.00
2019-06-26T05:46:31.058Z,4636.00
2019-06-26T05:47:24.961Z,4672.00
2019-06-26T05:48:24.940Z,4724.00
2019-06-26T05:49:24.930Z,4760.00
2019-06-26T05:50:24.936Z,4776.00
2019-06-26T05:51:24.934Z,4792.00
2019-06-26T05:52:24.891Z,4808.00
2019-06-26T05:53:24.879Z,4820.00
2019-06-26T05:54:24.877Z,4836.00
2019-06-26T05:55:24.853Z,4860.00
2019-06-26T05:56:24.860Z,4872.00
2019-06-26T05:57:24.827Z,4908.00
2019-06-26T05:58:24.814Z,4924.00
2019-06-26T05:59:24.802Z,4948.00
2019-06-26T06:00:24.793Z,4968.00
2019-06-26T06:01:24.794Z,4968.00
2019-06-26T06:02:24.789Z,4992.00
2019-06-26T06:03:24.753Z,5020.00
2019-06-26T06:04:24.741Z,5048.00
2019-06-26T06:05:24.730Z,5064.00
2019-06-26T06:06:40.336Z,5060.00
2019-06-26T06:07:24.705Z,5072.00
2019-06-26T06:08:24.724Z,5076.00
2019-06-26T06:09:24.688Z,5100.00
2019-06-26T06:10:24.669Z,5120.00
2019-06-26T06:11:24.655Z,5136.00
2019-06-26T06:12:24.651Z,5136.00
2019-06-26T06:13:24.632Z,5132.00
2019-06-26T06:14:24.640Z,5120.00
2019-06-26T06:15:24.608Z,5108.00
2019-06-26T06:46:10.645Z,5332.00
2019-06-26T06:47:10.609Z,5336.00
2019-06-26T06:48:10.599Z,5352.00
2019-06-26T06:49:10.589Z,5352.00
2019-06-26T06:50:10.580Z,5348.00
2019-06-26T06:51:10.558Z,5356.00
2019-06-26T06:52:10.569Z,5352.00
2019-06-26T06:53:10.543Z,5360.00
2019-06-26T06:54:10.521Z,5368.00
2019-06-26T06:55:10.510Z,5380.00
2019-06-26T06:56:10.497Z,5404.00
2019-06-26T06:57:10.484Z,5428.00
2019-06-26T06:58:10.489Z,5444.00
2019-06-26T06:59:10.464Z,5460.00
2019-06-26T07:00:10.454Z,5472.00
2019-06-26T07:01:17.474Z,5484.00
2019-06-26T07:02:10.429Z,5488.00
2019-06-26T07:03:10.436Z,5492.00
2019-06-26T07:04:10.409Z,5508.00
2019-06-26T07:05:10.394Z,5528.00
2019-06-26T07:06:10.383Z,5556.00
2019-06-26T07:07:10.375Z,5564.00
2019-06-26T07:08:10.363Z,5580.00
2019-06-26T07:09:10.375Z,5584.00
2019-06-26T07:10:10.343Z,5580.00
2019-06-26T07:11:10.329Z,5580.00
2019-06-26T07:12:10.321Z,5568.00
2019-06-26T07:13:10.309Z,5572.00
2019-06-26T07:14:10.321Z,5572.00
2019-06-26T07:15:10.321Z,5576.00
2019-06-26T07:16:10.278Z,5588.00
2019-06-26T07:17:19.964Z,5604.00
2019-06-26T07:18:10.261Z,5620.00
2019-06-26T07:19:10.247Z,5628.00
2019-06-26T07:20:10.256Z,5636.00
2019-06-26T07:21:10.228Z,5640.00
2019-06-26T07:22:10.220Z,5640.00
2019-06-26T07:23:10.207Z,5624.00
2019-06-26T07:24:10.196Z,5620.00
2019-06-26T07:25:10.187Z,5624.00
2019-06-26T07:26:13.228Z,5648.00
2019-06-26T07:27:10.171Z,5668.00
2019-06-26T07:28:10.191Z,5696.00
2019-06-26T07:29:10.153Z,5700.00
2019-06-26T07:30:10.138Z,5704.00
2019-06-26T07:31:10.126Z,5708.00
2019-06-26T07:32:10.143Z,5708.00
2019-06-26T07:33:10.108Z,5692.00
2019-06-26T08:11:10.314Z,5836.00
2019-06-26T08:12:10.285Z,5848.00
2019-06-26T08:13:10.272Z,5872.00
2019-06-26T08:14:10.263Z,5884.00
2019-06-26T08:15:10.268Z,5900.00
2019-06-26T08:16:10.237Z,5888.00
2019-06-26T08:17:10.230Z,5884.00
2019-06-26T08:18:10.222Z,5900.00
2019-06-26T08:19:10.216Z,5924.00
2019-06-26T08:20:10.209Z,5916.00
2019-06-26T08:21:12.629Z,5924.00
2019-06-26T08:22:10.176Z,5932.00
2019-06-26T08:23:10.157Z,5936.00
2019-06-26T08:24:10.159Z,5940.00
2019-06-26T08:25:10.142Z,5936.00
2019-06-26T08:26:17.182Z,5944.00
2019-06-26T08:27:13.004Z,5944.00
2019-06-26T08:28:10.107Z,5936.00
2019-06-26T08:29:10.107Z,5940.00
2019-06-26T08:30:10.096Z,5944.00
2019-06-26T08:31:10.100Z,5936.00
2019-06-26T08:32:10.092Z,5932.00
2019-06-26T08:33:10.057Z,5928.00
2019-06-26T08:34:10.044Z,5944.00
2019-06-26T08:35:10.036Z,5968.00
2019-06-26T08:36:10.023Z,5976.00
2019-06-26T08:37:10.014Z,5984.00
2019-06-26T08:38:15.152Z,5988.00
2019-06-26T08:39:09.995Z,5980.00
2019-06-26T08:40:10.001Z,5984.00
2019-06-26T08:41:09.979Z,6004.00
2019-06-26T09:04:01.034Z,6168.00
2019-06-26T09:05:00.997Z,6200.00
2019-06-26T09:06:00.988Z,6212.00
2019-06-26T09:07:00.978Z,6244.00
2019-06-26T09:08:00.998Z,6276.00
2019-06-26T09:09:00.958Z,6300.00
2019-06-26T09:10:00.980Z,6320.00
2019-06-26T09:11:00.971Z,6328.00
2019-06-26T09:12:00.921Z,6364.00
2019-06-26T09:13:00.908Z,6404.00
2019-06-26T09:14:00.901Z,6428.00
2019-06-26T09:15:00.887Z,6436.00
2019-06-26T09:16:00.901Z,6452.00
2019-06-26T09:17:00.869Z,6484.00
2019-06-26T09:18:00.857Z,6508.00
2019-06-26T09:19:00.847Z,6532.00
2019-06-26T09:20:00.835Z,6536.00
2019-06-26T09:21:00.826Z,6540.00
2019-06-26T09:22:00.843Z,6552.00
2019-06-26T09:23:00.808Z,6592.00
2019-06-26T09:24:00.799Z,6640.00
2019-06-26T09:25:00.791Z,6660.00
2019-06-26T09:26:00.780Z,6660.00
2019-06-26T09:27:00.770Z,6676.00
2019-06-26T09:28:00.791Z,6708.00
2019-06-26T09:29:00.749Z,6736.00
2019-06-26T09:30:00.741Z,6764.00
2019-06-26T09:31:00.736Z,6808.00
2019-06-26T09:32:00.724Z,6840.00
2019-06-26T09:33:00.714Z,6852.00
2019-06-26T09:34:00.729Z,6868.00
2019-06-26T09:35:00.696Z,6860.00
2019-06-26T09:36:00.690Z,6876.00
2019-06-26T09:37:00.678Z,6868.00
2019-06-26T09:38:00.669Z,6888.00
2019-06-26T09:39:00.679Z,6908.00
2019-06-26T09:52:03.399Z,7132.00
2019-06-26T09:53:05.328Z,7172.00
2019-06-26T09:54:03.460Z,7192.00
2019-06-26T09:55:03.331Z,7200.00
2019-06-26T09:56:03.317Z,7192.00
2019-06-26T09:57:03.309Z,7204.00
2019-06-26T09:58:03.342Z,7256.00
2019-06-26T09:59:03.289Z,7324.00
2019-06-26T10:00:03.327Z,7344.00
2019-06-26T10:01:03.268Z,7316.00
2019-06-26T10:02:03.263Z,7348.00
2019-06-26T10:03:03.254Z,7396.00
2019-06-26T10:04:03.294Z,7440.00
2019-06-26T10:05:03.228Z,7472.00
2019-06-26T10:06:03.219Z,7492.00
2019-06-26T10:07:03.215Z,7520.00
2019-06-26T10:08:03.440Z,7544.00
2019-06-26T10:09:03.194Z,7544.00
2019-06-26T10:10:03.214Z,7560.00
2019-06-26T10:11:03.177Z,7620.00
2019-06-26T10:12:03.168Z,7664.00
2019-06-26T10:13:03.158Z,7692.00
2019-06-26T10:14:03.153Z,7736.00
2019-06-26T10:15:03.149Z,7796.00
2019-06-26T10:16:03.159Z,7840.00
2019-06-26T10:17:03.120Z,7852.00
2019-06-26T10:18:03.115Z,7856.00
2019-06-26T10:19:10.167Z,7864.00
2019-06-26T10:20:03.279Z,7864.00
2019-06-26T10:21:03.094Z,7904.00
2019-06-26T10:22:03.107Z,7936.00
2019-06-26T10:23:03.077Z,7968.00
2019-06-26T10:24:03.088Z,7980.00
2019-06-26T10:25:03.078Z,8020.00
2019-06-26T10:26:03.050Z,8104.00
2019-06-26T10:27:03.083Z,8200.00
2019-06-26T10:28:03.056Z,8332.00
2019-06-26T10:29:03.019Z,8400.00
2019-06-26T10:30:03.024Z,8492.00
2019-06-26T10:31:03.010Z,8548.00
2019-06-26T10:32:02.998Z,8636.00
2019-06-26T10:33:03.012Z,8776.00
2019-06-26T10:34:02.991Z,8876.00
2019-06-26T10:35:02.971Z,8932.00
2019-06-26T10:36:02.975Z,8904.00
2019-06-26T10:37:02.970Z,8824.00
2019-06-26T10:38:02.944Z,8764.00
2019-06-26T10:39:02.945Z,8736.00
2019-06-26T10:40:02.931Z,8712.00
2019-06-26T10:41:02.940Z,8720.00
2019-06-26T10:42:02.912Z,8732.00
2019-06-26T10:43:02.911Z,8720.00
2019-06-26T10:44:02.932Z,8700.00
2019-06-26T10:45:02.887Z,8688.00
2019-06-26T10:46:02.894Z,8692.00
2019-06-26T10:47:02.875Z,8676.00
2019-06-26T10:48:02.866Z,8692.00
2019-06-26T10:49:02.866Z,8700.00
2019-06-26T10:50:02.898Z,8764.00
2019-06-26T10:51:02.942Z,8840.00
2019-06-26T10:52:02.831Z,8900.00
2019-06-26T10:53:02.840Z,8940.00
2019-06-26T10:54:02.819Z,8952.00
2019-06-26T10:55:02.809Z,8964.00
2019-06-26T10:56:02.835Z,8904.00
2019-06-26T10:57:02.813Z,8748.00
2019-06-26T10:58:02.784Z,8712.00
2019-06-26T10:59:02.775Z,8816.00
2019-06-26T11:00:02.771Z,8964.00
2019-06-26T11:01:02.771Z,9004.00
2019-06-26T11:02:02.769Z,9024.00
2019-06-26T11:03:02.744Z,9048.00
2019-06-26T11:04:02.736Z,9044.00
2019-06-26T11:05:02.789Z,9024.00
2019-06-26T11:06:02.719Z,9088.00
2019-06-26T11:07:02.767Z,9124.00
2019-06-26T11:08:02.721Z,9284.00
2019-06-26T11:09:02.696Z,9432.00
2019-06-26T11:10:02.729Z,9624.00
2019-06-26T11:11:02.692Z,9852.00
2019-06-26T11:12:02.709Z,9876.00
2019-06-26T11:13:02.687Z,9776.00
2019-06-26T11:14:02.696Z,9652.00
2019-06-26T11:15:02.654Z,9628.00
2019-06-26T11:16:02.649Z,9552.00
2019-06-26T11:17:02.634Z,9552.00
2019-06-26T11:18:02.641Z,9772.00
2019-06-26T11:19:02.623Z,9868.00
2019-06-26T11:20:02.611Z,9860.00
2019-06-26T11:21:02.601Z,9856.00
2019-06-26T11:22:02.598Z,9824.00
2019-06-26T11:23:02.608Z,9764.00
2019-06-26T11:24:02.580Z,9804.00
2019-06-26T11:25:02.571Z,9968.00
2019-06-26T11:26:02.632Z,10108.00
2019-06-26T11:27:02.556Z,10132.00
2019-06-26T11:28:02.570Z,10280.00
2019-06-26T11:29:02.545Z,10412.00
2019-06-26T11:30:02.536Z,10508.00
2019-06-26T11:31:02.545Z,10580.00
2019-06-26T11:32:02.573Z,10648.00
2019-06-26T11:33:02.603Z,10820.00
2019-06-26T11:34:02.506Z,10912.00
2019-06-26T11:35:02.642Z,10988.00
2019-06-26T11:36:02.492Z,11012.00
2019-06-26T11:37:04.339Z,11072.00
2019-06-26T11:38:02.564Z,11068.00
2019-06-26T11:39:02.495Z,11144.00
2019-06-26T11:40:02.500Z,11156.00
2019-06-26T11:41:02.452Z,11148.00
2019-06-26T11:42:02.447Z,11220.00
2019-06-26T11:43:02.464Z,11672.00
2019-06-26T11:44:02.431Z,12024.00
2019-06-26T11:45:02.421Z,12068.00
2019-06-26T11:46:02.415Z,12088.00
2019-06-26T11:47:02.410Z,12120.00
2019-06-26T11:48:02.405Z,12136.00
2019-06-26T11:49:02.408Z,12152.00
2019-06-26T11:50:02.386Z,12196.00
2019-06-26T11:51:02.379Z,12244.00
2019-06-26T11:52:02.377Z,12396.00
2019-06-26T11:53:02.366Z,12400.00
2019-06-26T11:54:02.376Z,12476.00
2019-06-26T11:55:03.656Z,12448.00
2019-06-26T11:56:02.344Z,12452.00
2019-06-26T11:57:02.335Z,12436.00
2019-06-26T11:58:02.463Z,12384.00
2019-06-26T11:59:02.345Z,12304.00
2019-06-26T12:00:02.316Z,12364.00
2019-06-26T12:01:02.306Z,12628.00
2019-06-26T12:02:02.300Z,12876.00
2019-06-26T12:03:02.329Z,12752.00
2019-06-26T12:04:02.326Z,12568.00
2019-06-26T12:05:02.278Z,12396.00
2019-06-26T12:06:17.750Z,12164.00
2019-06-26T12:07:02.266Z,12088.00
2019-06-26T12:08:02.260Z,11988.00
2019-06-26T12:09:02.250Z,11708.00
2019-06-26T12:10:02.376Z,11644.00
2019-06-26T12:11:02.246Z,11768.00
2019-06-26T12:12:02.239Z,11844.00
2019-06-26T12:13:04.211Z,11728.00
2019-06-26T12:14:02.215Z,11568.00
2019-06-26T12:15:02.242Z,11472.00
2019-06-26T12:16:02.364Z,11416.00
2019-06-26T12:17:02.200Z,11212.00
2019-06-26T12:18:02.224Z,11132.00
2019-06-26T12:19:02.179Z,11204.00
2019-06-26T12:20:16.985Z,11328.00
2019-06-26T12:21:02.181Z,11468.00
2019-06-26T12:22:02.163Z,11624.00
2019-06-26T12:23:02.156Z,11864.00
2019-06-26T12:24:02.194Z,11992.00
2019-06-26T12:25:02.246Z,12000.00
2019-06-26T12:26:02.143Z,11956.00
2019-06-26T12:27:02.126Z,11984.00
2019-06-26T12:28:02.177Z,12040.00
2019-06-26T12:29:02.258Z,12028.00
2019-06-26T12:30:02.115Z,12012.00
2019-06-26T12:31:02.109Z,11980.00
2019-06-26T12:32:02.169Z,11884.00
2019-06-26T12:33:03.786Z,11864.00
2019-06-26T12:34:02.258Z,11912.00
2019-06-26T12:35:02.084Z,11944.00
2019-06-26T12:36:02.085Z,12024.00
2019-06-26T12:37:02.070Z,12004.00
2019-06-26T12:38:02.124Z,12044.00
2019-06-26T12:39:02.046Z,12120.00
2019-06-26T12:40:02.073Z,12240.00
2019-06-26T12:41:02.033Z,12392.00
2019-06-26T12:42:02.035Z,12560.00
2019-06-26T12:43:02.014Z,12620.00
2019-06-26T12:44:02.010Z,12616.00
2019-06-26T12:45:02.006Z,12676.00
2019-06-26T12:46:01.994Z,12724.00
2019-06-26T12:47:02.002Z,12792.00
2019-06-26T12:48:01.990Z,12844.00
2019-06-26T12:49:01.974Z,12888.00
2019-06-26T12:50:02.056Z,12956.00
2019-06-26T12:51:01.959Z,13076.00
2019-06-26T12:52:02.002Z,13224.00
2019-06-26T12:53:01.957Z,13352.00
2019-06-26T12:54:01.949Z,13428.00
2019-06-26T12:55:02.001Z,13412.00
2019-06-26T12:56:01.937Z,13440.00
2019-06-26T12:57:01.926Z,13500.00
2019-06-26T12:58:12.333Z,13596.00
2019-06-26T12:59:01.941Z,13700.00
2019-06-26T13:00:02.345Z,13856.00
2019-06-26T13:01:01.938Z,14032.00
2019-06-26T13:02:01.890Z,14236.00
2019-06-26T13:03:01.898Z,14548.00
2019-06-26T13:04:01.882Z,14940.00
2019-06-26T13:05:01.885Z,15264.00
2019-06-26T13:06:01.864Z,15452.00
2019-06-26T13:07:01.912Z,15676.00
2019-06-26T13:08:01.870Z,15948.00
2019-06-26T13:09:01.848Z,16260.00
2019-06-26T13:10:02.117Z,16612.00
2019-06-26T13:11:01.836Z,17012.00
2019-06-26T13:12:01.833Z,17352.00
2019-06-26T13:13:01.842Z,17772.00
2019-06-26T13:14:03.195Z,18172.00
2019-06-26T13:15:01.816Z,18784.00
2019-06-26T13:16:01.810Z,20000.00
2019-06-26T13:17:01.805Z,25088.00
2019-06-26T13:18:01.826Z,29216.00
2019-06-26T13:19:01.853Z,30912.00
2019-06-26T13:20:01.822Z,37088.00
2019-06-26T13:21:05.038Z,67424.00
2019-06-26T13:22:01.836Z,86112.00
2019-06-26T13:23:01.793Z,85376.00
2019-06-26T13:24:01.766Z,82304.00
2019-06-26T13:25:01.787Z,85920.00
2019-06-26T13:26:01.757Z,86208.00
2019-06-26T13:27:01.753Z,92448.00
2019-06-26T13:28:01.748Z,89344.00
2019-06-26T13:29:01.742Z,88512.00
2019-06-26T13:30:01.748Z,96864.00
2019-06-26T13:31:01.775Z,93856.00
2019-06-26T13:32:01.726Z,95872.00
2019-06-26T13:33:01.724Z,105696.00
2019-06-26T13:34:01.716Z,115008.00
2019-06-26T13:35:01.821Z,112480.00
2019-06-26T13:36:01.710Z,103488.00
2019-06-26T13:37:01.702Z,110016.00
2019-06-26T13:38:01.696Z,115808.00
2019-06-26T13:39:01.733Z,119520.00
2019-06-26T13:40:01.695Z,112576.00
2019-06-26T13:41:01.698Z,111424.00
2019-06-26T13:42:01.680Z,121056.00
2019-06-26T13:43:01.681Z,123520.00
2019-06-26T13:44:01.677Z,115360.00
2019-06-26T13:45:01.667Z,122848.00
2019-06-26T13:46:01.691Z,126048.00
2019-06-26T13:47:01.664Z,118880.00
2019-06-26T13:48:01.658Z,112896.00
2019-06-26T13:49:01.654Z,122176.00
2019-06-26T13:50:01.648Z,124544.00
2019-06-26T13:51:09.178Z,111520.00
2019-06-26T13:52:01.666Z,111808.00
2019-06-26T13:53:01.639Z,117152.00
2019-06-26T13:54:01.637Z,123712.00
2019-06-26T13:55:01.636Z,125792.00
2019-06-26T13:56:01.642Z,119232.00
2019-06-26T13:57:01.661Z,113568.00
2019-06-26T13:58:01.623Z,119904.00
2019-06-26T13:59:01.619Z,121888.00